TimeAKST,TemperatureF,Dew PointF,Humidity,Sea Level PressureIn,VisibilityMPH,Wind Direction,Wind SpeedMPH,Gust SpeedMPH,PrecipitationIn,Events,Conditions,WindDirDegrees,DateUTC
12:53 AM,-35.0,-9999,N/A,30.34,5.0,North,-9999.0,-,N/A,,Haze,0,2013-02-20 09:53:00
1:53 AM,-34.1,-9999,N/A,30.33,4.0,North,-9999.0,-,N/A,,Haze,0,2013-02-20 10:53:00
3:53 AM,-34.1,-9999,N/A,30.31,5.0,North,-9999.0,-,N/A,,Haze,0,2013-02-20 12:53:00
5:02 AM,-32.8,-9999,N/A,30.31,2.5,North,-9999.0,-,N/A,,Clear,0,2013-02-20 14:02:00
5:53 AM,-33.0,-9999,N/A,30.30,2.5,North,-9999.0,-,N/A,,Clear,0,2013-02-20 14:53:00
6:46 AM,-32.8,-9999,N/A,30.29,3.0,North,-9999.0,-,N/A,,Clear,0,2013-02-20 15:46:00
6:53 AM,-33.0,-9999,N/A,30.30,3.0,North,-9999.0,-,N/A,,Clear,0,2013-02-20 15:53:00
7:38 AM,-34.6,-9999,N/A,30.29,2.5,North,-9999.0,-,N/A,,Clear,0,2013-02-20 16:38:00
7:48 AM,-32.8,-9999,N/A,30.29,3.0,North,-9999.0,-,N/A,,Clear,0,2013-02-20 16:48:00
7:53 AM,-33.0,-9999,N/A,30.29,3.0,North,-9999.0,-,N/A,,Clear,0,2013-02-20 16:53:00
8:53 AM,-33.0,-9999,N/A,30.28,4.0,North,-9999.0,-,N/A,,Haze,0,2013-02-20 17:53:00
9:15 AM,-32.8,-9999,N/A,30.26,2.5,North,-9999.0,-,N/A,,Clear,0,2013-02-20 18:15:00
9:53 AM,-32.1,-9999,N/A,30.26,1.8,North,-9999.0,-,N/A,,Clear,0,2013-02-20 18:53:00
10:51 AM,-29.2,-34.6,75,30.26,2.0,North,-9999.0,-,N/A,,Haze,0,2013-02-20 19:51:00
10:53 AM,-29.0,-35.0,73,30.26,2.0,North,-9999.0,-,N/A,,Haze,0,2013-02-20 19:53:00
11:53 AM,-29.0,-34.1,77,30.26,2.5,North,-9999.0,-,N/A,,Haze,0,2013-02-20 20:53:00
12:53 PM,-27.9,-33.0,77,30.25,2.5,North,-9999.0,-,N/A,,Haze,0,2013-02-20 21:53:00
1:53 PM,-27.0,-32.1,77,30.25,-9999.0,North,-9999.0,-,N/A,,Unknown,0,2013-02-20 22:53:00
2:53 PM,-27.0,-32.1,77,30.24,2.5,North,-9999.0,-,N/A,,Haze,0,2013-02-20 23:53:00
3:32 PM,-27.4,-32.8,75,30.22,3.0,North,-9999.0,-,N/A,,Haze,0,2013-02-21 00:32:00
4:23 PM,-27.4,-32.8,75,30.22,2.5,North,-9999.0,-,N/A,,Haze,0,2013-02-21 01:23:00
4:45 PM,-27.4,-32.8,75,30.22,3.0,North,-9999.0,-,N/A,,Haze,0,2013-02-21 01:45:00
4:53 PM,-27.0,-32.1,77,30.23,2.5,North,-9999.0,-,N/A,,Haze,0,2013-02-21 01:53:00
5:02 PM,-27.4,-32.8,75,30.23,2.0,North,-9999.0,-,N/A,,Haze,0,2013-02-21 02:02:00
5:45 PM,-27.4,-32.8,75,30.23,1.8,NE,12.7,-,N/A,,Haze,40,2013-02-21 02:45:00
5:53 PM,-27.9,-33.0,77,30.23,1.8,NE,13.8,-,N/A,,Haze,40,2013-02-21 02:53:00
6:02 PM,-27.4,-32.8,75,30.23,2.5,NE,15.0,-,N/A,,Haze,40,2013-02-21 03:02:00
6:24 PM,-27.4,-32.8,75,30.23,3.0,NE,15.0,-,N/A,,Haze,40,2013-02-21 03:24:00
6:53 PM,-27.9,-33.0,77,30.23,3.0,NE,13.8,-,N/A,,Haze,40,2013-02-21 03:53:00
7:19 PM,-27.4,-32.8,75,30.22,2.5,NE,15.0,-,N/A,,Haze,50,2013-02-21 04:19:00
7:44 PM,-27.4,-32.8,75,30.22,3.0,NE,12.7,-,N/A,,Haze,40,2013-02-21 04:44:00
7:51 PM,-27.4,-32.8,75,30.22,2.5,NE,11.5,-,N/A,,Haze,40,2013-02-21 04:51:00
7:52 PM,-27.9,-33.0,77,30.23,2.5,NE,11.5,-,N/A,,Haze,40,2013-02-21 04:52:00
7:58 PM,-27.4,-32.8,75,30.22,3.0,NE,12.7,-,N/A,,Haze,40,2013-02-21 04:58:00
8:07 PM,-27.4,-32.8,75,30.22,2.5,NE,12.7,-,N/A,,Haze,40,2013-02-21 05:07:00
8:27 PM,-29.2,-32.8,83,30.22,3.0,NE,11.5,-,N/A,,Mostly Cloudy,50,2013-02-21 05:27:00
8:38 PM,-29.2,-34.6,75,30.22,2.0,NE,10.4,-,N/A,,Haze,50,2013-02-21 05:38:00
8:51 PM,-29.2,-34.6,75,30.22,3.0,NE,12.7,-,N/A,,Haze,40,2013-02-21 05:51:00
8:53 PM,-29.0,-34.1,77,30.23,3.0,NE,12.7,-,N/A,,Haze,40,2013-02-21 05:53:00
9:02 PM,-29.2,-34.6,75,30.22,2.0,NE,12.7,-,N/A,,Haze,40,2013-02-21 06:02:00
9:15 PM,-29.2,-34.6,75,30.21,3.0,NE,13.8,-,N/A,,Haze,50,2013-02-21 06:15:00
9:32 PM,-29.2,-34.6,75,30.21,2.5,NE,15.0,-,N/A,,Haze,40,2013-02-21 06:32:00
9:42 PM,-29.2,-34.6,75,30.21,4.0,NE,15.0,-,N/A,,Haze,40,2013-02-21 06:42:00
9:53 PM,-29.0,-34.1,77,30.22,4.0,NE,15.0,-,N/A,,Haze,40,2013-02-21 06:53:00
10:53 PM,-29.9,-9999,N/A,30.22,5.0,NE,12.7,-,N/A,,Haze,40,2013-02-21 07:53:00
11:53 PM,-29.9,-9999,N/A,30.23,5.0,North,-9999.0,-,N/A,,Haze,0,2013-02-21 08:53:00